Waterville, Ohio
Current Conditions -  °F | °C
As of 12:52 AM on Thursday 23 Oct 2014 (Local Time) from KTOL Reporting Station
Clear Clear  
Wind Chill: 39°   Ceiling: Unl
Heat Index: 39°   Visibility: 10mi
Dew Point: 37°   Wind: 3mph
Humidity: 93%   Direction: 310°NW
Pressure: 30.28"   Gusts: NA
Location:  41.5°N, 83.72°W
Report Text: KTOL 230452Z 31003KT 10SM CLR 04/03 A3028 RMK AO2 SLP257 T00390028 401280039
Loading
Personal Weather Stations






























Interactive Weather Map
Tropical Storm Tracking
New forecast layout! Learn more

10-Day Weather Forecast

Advertisements
Track Severe Weather on mobile